createdAt,value
2023-02-23T00:00:21.476Z,26.82
2023-02-23T00:02:49.304Z,27.05
2023-02-23T00:05:22.434Z,26.87
2023-02-23T00:07:49.010Z,26.81
2023-02-23T00:10:15.582Z,26.63
2023-02-23T00:13:02.225Z,26.64
2023-02-23T00:15:29.007Z,26.52
2023-02-23T00:18:02.857Z,27.09
2023-02-23T00:20:29.321Z,26.74
2023-02-23T00:22:58.526Z,26.13
2023-02-23T00:25:25.624Z,26.64
2023-02-23T00:27:52.342Z,26.50
2023-02-23T00:30:19.930Z,26.67
2023-02-23T00:32:46.941Z,26.59
2023-02-23T00:35:13.526Z,26.82
2023-02-23T00:37:40.058Z,27.02
2023-02-23T00:40:06.943Z,26.65
2023-02-23T00:42:35.357Z,27.07
2023-02-23T00:45:04.317Z,26.72
2023-02-23T00:47:30.900Z,27.02
2023-02-23T00:50:04.753Z,27.43
2023-02-23T00:52:31.569Z,27.22
2023-02-23T00:55:01.393Z,27.64
2023-02-23T00:57:27.913Z,27.20
2023-02-23T00:59:54.445Z,27.69
2023-02-23T01:02:20.982Z,27.68
2023-02-23T01:04:47.541Z,27.40
2023-02-23T01:07:16.680Z,26.56
2023-02-23T01:09:43.180Z,27.57
2023-02-23T01:12:09.653Z,27.38
2023-02-23T01:14:37.112Z,27.34
2023-02-23T01:17:03.696Z,27.58
2023-02-23T01:19:30.326Z,27.55
2023-02-23T01:22:02.044Z,26.87
2023-02-23T01:24:31.163Z,27.36
2023-02-23T01:26:57.755Z,27.34
2023-02-23T01:29:24.406Z,26.61
2023-02-23T01:31:51.306Z,27.12
2023-02-23T01:34:19.973Z,26.85
2023-02-23T01:36:46.496Z,26.63
2023-02-23T01:39:21.127Z,26.97
2023-02-23T01:41:48.620Z,27.04
2023-02-23T01:44:15.113Z,27.17
2023-02-23T01:46:45.203Z,27.10
2023-02-23T01:49:19.598Z,26.55
2023-02-23T01:51:52.277Z,27.34
2023-02-23T01:54:24.396Z,27.47
2023-02-23T01:56:55.131Z,26.59
2023-02-23T01:59:21.881Z,27.25
2023-02-23T02:01:48.400Z,27.91
2023-02-23T02:04:15.170Z,27.43
2023-02-23T02:06:45.738Z,27.00
2023-02-23T02:09:16.323Z,27.04
2023-02-23T02:11:43.290Z,26.74
2023-02-23T02:14:15.950Z,27.29
2023-02-23T02:17:04.770Z,26.62
2023-02-23T02:20:07.480Z,26.79
2023-02-23T02:23:14.584Z,27.11
2023-02-23T02:26:03.618Z,26.87
2023-02-23T02:28:54.797Z,27.12
2023-02-23T02:31:39.834Z,27.18
2023-02-23T02:34:21.255Z,27.04
2023-02-23T02:37:08.942Z,26.39
2023-02-23T02:39:52.688Z,26.59
2023-02-23T02:42:38.524Z,26.96
2023-02-23T02:45:26.815Z,27.31
2023-02-23T02:48:08.593Z,27.69
2023-02-23T02:50:58.039Z,26.41
2023-02-23T02:53:33.194Z,27.24
2023-02-23T02:56:04.103Z,26.74
2023-02-23T02:58:31.644Z,26.60
2023-02-23T03:01:07.356Z,26.75
2023-02-23T03:03:38.785Z,27.27
2023-02-23T03:06:05.526Z,26.14
2023-02-23T03:08:44.762Z,26.93
2023-02-23T03:11:14.285Z,26.16
2023-02-23T03:14:12.823Z,26.76
2023-02-23T03:16:56.436Z,26.80
2023-02-23T03:19:30.109Z,26.87
2023-02-23T03:22:34.699Z,27.42
2023-02-23T03:25:14.389Z,26.73
2023-02-23T03:28:05.958Z,26.89
2023-02-23T03:30:45.883Z,26.54
2023-02-23T03:33:23.838Z,25.82
2023-02-23T03:36:19.203Z,26.89
2023-02-23T03:38:58.627Z,26.55
2023-02-23T03:41:29.241Z,26.68
2023-02-23T03:44:01.934Z,26.56
2023-02-23T03:46:31.901Z,26.39
2023-02-23T03:49:04.688Z,27.49
2023-02-23T03:51:36.898Z,27.71
2023-02-23T03:54:13.434Z,27.93
2023-02-23T03:56:45.909Z,27.67
2023-02-23T03:59:18.716Z,28.02
2023-02-23T04:01:48.105Z,28.46
2023-02-23T04:04:14.622Z,28.18
2023-02-23T04:06:46.555Z,28.21
2023-02-23T04:09:13.498Z,26.75
2023-02-23T04:11:56.342Z,27.42
2023-02-23T04:14:37.808Z,26.90
2023-02-23T04:17:07.000Z,27.17
2023-02-23T04:19:33.521Z,26.24
2023-02-23T04:22:00.017Z,25.97
2023-02-23T04:24:26.563Z,26.37
2023-02-23T04:26:53.060Z,26.47
2023-02-23T04:29:19.540Z,26.24
2023-02-23T04:31:46.217Z,26.75
2023-02-23T04:34:12.749Z,25.87
2023-02-23T04:36:39.350Z,25.88
2023-02-23T04:39:05.976Z,26.31
2023-02-23T04:41:32.494Z,26.04
2023-02-23T04:43:58.978Z,25.75
2023-02-23T04:46:25.544Z,26.52
2023-02-23T04:48:52.020Z,26.29
2023-02-23T04:51:18.884Z,26.41
2023-02-23T04:53:45.816Z,26.06
2023-02-23T04:56:12.284Z,25.97
2023-02-23T04:58:38.881Z,26.04
2023-02-23T05:01:08.198Z,26.06
2023-02-23T05:03:34.792Z,26.66
2023-02-23T05:06:01.362Z,27.48
2023-02-23T05:08:27.835Z,27.01
2023-02-23T05:10:54.441Z,26.88
2023-02-23T05:13:21.059Z,26.61
2023-02-23T05:15:47.636Z,26.29
2023-02-23T05:18:14.348Z,26.55
2023-02-23T05:20:44.203Z,25.88
2023-02-23T05:23:11.636Z,27.03
2023-02-23T05:25:39.162Z,26.06
2023-02-23T05:28:05.941Z,26.15
2023-02-23T05:30:32.921Z,26.06
2023-02-23T05:32:59.641Z,25.68
2023-02-23T05:35:26.305Z,26.55
2023-02-23T05:37:52.881Z,26.75
2023-02-23T05:40:19.444Z,25.61
2023-02-23T05:42:46.095Z,26.32
2023-02-23T05:45:15.299Z,25.74
2023-02-23T05:47:41.856Z,26.81
2023-02-23T05:50:10.229Z,25.98
2023-02-23T05:52:40.732Z,25.70
2023-02-23T05:55:09.631Z,26.07
2023-02-23T05:57:36.160Z,26.31
2023-02-23T06:00:04.116Z,26.56
2023-02-23T06:02:30.666Z,27.20
2023-02-23T06:04:57.198Z,26.73
2023-02-23T06:07:23.813Z,25.84
2023-02-23T06:09:50.404Z,26.80
2023-02-23T06:12:16.897Z,25.69
2023-02-23T06:14:43.426Z,26.20
2023-02-23T06:17:09.966Z,26.16
2023-02-23T06:19:36.500Z,26.16
2023-02-23T06:22:03.075Z,27.47
2023-02-23T06:24:29.573Z,28.30
2023-02-23T06:26:56.194Z,28.30
2023-02-23T06:29:22.789Z,28.93
2023-02-23T06:31:49.423Z,29.05
2023-02-23T06:34:15.951Z,27.37
2023-02-23T06:36:42.521Z,27.30
2023-02-23T06:39:11.426Z,26.50
2023-02-23T06:41:38.293Z,24.98
2023-02-23T06:44:04.965Z,25.47
2023-02-23T06:46:31.619Z,25.65
2023-02-23T06:48:58.482Z,25.85
2023-02-23T06:51:25.156Z,25.88
2023-02-23T06:53:51.944Z,25.94
2023-02-23T06:56:18.971Z,25.70
2023-02-23T06:58:45.482Z,25.27
2023-02-23T07:01:12.089Z,26.39
2023-02-23T07:03:38.918Z,25.43
2023-02-23T07:06:05.749Z,25.74
2023-02-23T07:08:33.713Z,26.10
2023-02-23T07:11:12.079Z,26.05
2023-02-23T07:13:39.343Z,25.26
2023-02-23T07:16:07.277Z,25.33
2023-02-23T07:18:34.320Z,25.28
2023-02-23T07:21:00.805Z,27.62
2023-02-23T07:23:27.411Z,29.30
2023-02-23T07:25:54.284Z,29.70
2023-02-23T07:28:20.771Z,29.76
2023-02-23T07:30:47.364Z,28.55
2023-02-23T07:33:14.011Z,28.88
2023-02-23T07:35:40.502Z,29.68
2023-02-23T07:38:07.045Z,30.49
2023-02-23T07:40:33.520Z,29.28
2023-02-23T07:43:00.105Z,30.09
2023-02-23T07:45:26.671Z,30.10
2023-02-23T07:47:53.217Z,31.04
2023-02-23T07:50:19.818Z,30.37
2023-02-23T07:52:46.397Z,30.54
2023-02-23T07:55:12.907Z,29.49
2023-02-23T07:57:39.522Z,29.68
2023-02-23T08:00:07.887Z,29.56
2023-02-23T08:02:34.479Z,27.48
2023-02-23T08:05:01.091Z,28.52
2023-02-23T08:07:27.647Z,26.86
2023-02-23T08:09:54.181Z,26.94
2023-02-23T08:12:20.708Z,26.88
2023-02-23T08:14:47.649Z,26.84
2023-02-23T08:17:14.208Z,26.00
2023-02-23T08:19:40.722Z,26.17
2023-02-23T08:22:09.899Z,25.70
2023-02-23T08:24:37.121Z,25.35
2023-02-23T08:27:04.229Z,26.20
2023-02-23T08:29:31.095Z,27.19
2023-02-23T08:31:59.002Z,25.91
2023-02-23T08:34:25.629Z,25.99
2023-02-23T08:36:52.095Z,26.52
2023-02-23T08:39:18.871Z,26.77
2023-02-23T08:41:45.390Z,26.44
2023-02-23T08:44:12.030Z,28.47
2023-02-23T08:46:38.542Z,29.35
2023-02-23T08:49:05.160Z,29.58
2023-02-23T08:51:32.938Z,29.12
2023-02-23T08:53:59.466Z,30.26
2023-02-23T08:56:26.046Z,30.59
2023-02-23T08:58:52.573Z,31.06
2023-02-23T09:01:24.990Z,31.20
2023-02-23T09:03:53.753Z,31.01
2023-02-23T09:06:29.955Z,30.04
2023-02-23T09:08:56.534Z,31.45
2023-02-23T09:11:24.272Z,33.13
2023-02-23T09:13:50.909Z,32.10
2023-02-23T09:16:17.550Z,31.70
2023-02-23T09:18:44.640Z,31.88
2023-02-23T09:21:18.289Z,32.00
2023-02-23T09:23:45.446Z,32.33
2023-02-23T09:26:12.040Z,32.62
2023-02-23T09:28:38.631Z,32.28
2023-02-23T09:31:07.641Z,33.71
2023-02-23T09:33:35.068Z,34.02
2023-02-23T09:36:08.846Z,34.77
2023-02-23T09:38:35.348Z,34.32
2023-02-23T09:41:02.027Z,33.17
2023-02-23T09:43:50.678Z,34.29
2023-02-23T09:46:41.615Z,34.25
2023-02-23T09:49:17.638Z,33.40
2023-02-23T09:51:51.327Z,33.42
2023-02-23T09:54:19.187Z,31.64
2023-02-23T09:56:48.489Z,31.30
2023-02-23T09:59:21.797Z,31.37
2023-02-23T10:01:52.892Z,30.87
2023-02-23T10:04:25.078Z,30.90
2023-02-23T10:07:04.670Z,31.64
2023-02-23T10:10:07.893Z,31.65
2023-02-23T10:13:02.242Z,31.60
2023-02-23T10:15:42.455Z,31.61
2023-02-23T10:18:30.681Z,31.00
2023-02-23T10:21:11.798Z,30.65
2023-02-23T10:23:46.195Z,30.64
2023-02-23T10:26:21.455Z,30.60
2023-02-23T10:28:48.962Z,29.96
2023-02-23T10:31:44.196Z,30.12
2023-02-23T10:34:16.520Z,29.48
2023-02-23T10:37:04.452Z,29.48
2023-02-23T10:39:32.891Z,29.54
2023-02-23T10:42:05.744Z,30.47
2023-02-23T10:44:32.307Z,30.09
2023-02-23T10:47:06.445Z,29.56
2023-02-23T10:49:45.015Z,29.65
2023-02-23T10:52:42.529Z,29.38
2023-02-23T10:55:22.739Z,29.94
2023-02-23T10:57:51.012Z,30.37
2023-02-23T11:00:17.418Z,30.15
2023-02-23T11:02:45.850Z,30.27
2023-02-23T11:05:35.778Z,30.09
2023-02-23T11:08:37.019Z,28.78
2023-02-23T11:11:15.941Z,28.91
2023-02-23T11:13:45.309Z,28.29
2023-02-23T11:16:20.602Z,21.14
2023-02-23T11:19:02.836Z,20.78
2023-02-23T11:21:33.101Z,21.68
2023-02-23T11:24:22.233Z,24.93
2023-02-23T11:26:52.613Z,21.76
2023-02-23T11:29:38.613Z,20.33
2023-02-23T11:32:22.578Z,20.11
2023-02-23T11:35:14.037Z,19.70
2023-02-23T11:37:40.538Z,23.55
2023-02-23T11:40:26.660Z,27.28
2023-02-23T11:43:05.854Z,28.88
2023-02-23T11:45:43.727Z,29.26
2023-02-23T11:48:33.012Z,28.92
2023-02-23T11:51:01.322Z,29.58
2023-02-23T11:53:34.960Z,27.78
2023-02-23T11:56:05.508Z,29.31
2023-02-23T11:58:39.214Z,29.99
2023-02-23T12:01:09.265Z,30.22
2023-02-23T12:03:36.444Z,30.36
2023-02-23T12:06:03.135Z,31.48
2023-02-23T12:08:35.220Z,30.60
2023-02-23T12:11:12.968Z,30.76
2023-02-23T12:13:46.205Z,30.27
2023-02-23T12:16:29.830Z,30.60
2023-02-23T12:19:06.325Z,30.20
2023-02-23T12:21:44.722Z,29.70
2023-02-23T12:24:29.865Z,29.74
2023-02-23T12:27:09.041Z,30.50
2023-02-23T12:30:03.458Z,30.70
2023-02-23T12:32:45.603Z,29.71
2023-02-23T12:35:37.742Z,29.70
2023-02-23T12:38:12.643Z,29.46
2023-02-23T12:40:41.625Z,29.56
2023-02-23T12:43:40.246Z,29.15
2023-02-23T12:46:14.628Z,29.50
2023-02-23T12:49:02.144Z,29.29
2023-02-23T12:51:28.617Z,29.48
2023-02-23T12:53:55.287Z,28.77
2023-02-23T12:56:32.005Z,28.33
2023-02-23T12:59:36.899Z,28.04
2023-02-23T13:02:14.632Z,27.46
2023-02-23T13:05:03.629Z,28.05
2023-02-23T13:07:53.966Z,27.49
2023-02-23T13:10:44.684Z,27.71
2023-02-23T13:13:27.487Z,26.32
2023-02-23T13:16:02.390Z,27.13
2023-02-23T13:19:05.055Z,26.48
2023-02-23T13:21:47.803Z,27.08
2023-02-23T13:24:25.036Z,27.01
2023-02-23T13:27:18.165Z,26.50
2023-02-23T13:29:47.681Z,27.76
2023-02-23T13:32:19.228Z,26.34
2023-02-23T13:34:52.104Z,26.45
2023-02-23T13:37:23.919Z,25.99
2023-02-23T13:40:24.375Z,25.30
2023-02-23T13:43:16.677Z,24.57
2023-02-23T13:46:17.279Z,24.08
2023-02-23T13:48:58.412Z,24.20
2023-02-23T13:51:39.277Z,23.94
2023-02-23T13:54:26.141Z,24.97
2023-02-23T13:56:59.613Z,25.43
2023-02-23T13:59:30.245Z,24.66
2023-02-23T14:01:59.674Z,24.33
2023-02-23T14:04:34.114Z,22.81
2023-02-23T14:07:17.932Z,22.67
2023-02-23T14:09:58.491Z,22.07
2023-02-23T14:12:42.594Z,22.65
2023-02-23T14:15:24.543Z,23.21
2023-02-23T14:17:56.993Z,22.99
2023-02-23T14:20:44.292Z,23.76
2023-02-23T14:23:29.485Z,22.92
2023-02-23T14:26:13.904Z,22.27
2023-02-23T14:28:45.048Z,22.18
2023-02-23T14:31:14.395Z,22.48
2023-02-23T14:33:43.708Z,21.65
2023-02-23T14:36:25.320Z,22.88
2023-02-23T14:39:00.999Z,21.32
2023-02-23T14:41:33.988Z,21.59
2023-02-23T14:44:27.115Z,21.24
2023-02-23T14:47:17.428Z,21.49
2023-02-23T14:50:02.478Z,20.98
2023-02-23T14:52:35.044Z,21.78
2023-02-23T14:55:27.922Z,21.06
2023-02-23T14:57:55.325Z,20.48
2023-02-23T15:00:26.056Z,20.86
2023-02-23T15:03:08.075Z,21.77
2023-02-23T15:05:42.477Z,21.11
2023-02-23T15:08:16.964Z,21.67
2023-02-23T15:10:49.979Z,21.31
2023-02-23T15:13:31.698Z,21.39
2023-02-23T15:16:05.198Z,21.47
2023-02-23T15:18:38.566Z,20.68
2023-02-23T15:21:16.043Z,21.39
2023-02-23T15:23:48.725Z,21.40
2023-02-23T15:26:24.209Z,20.19
2023-02-23T15:28:51.431Z,20.81
2023-02-23T15:31:19.357Z,20.92
2023-02-23T15:33:46.087Z,20.29
2023-02-23T15:36:30.504Z,21.28
2023-02-23T15:39:04.490Z,20.88
2023-02-23T15:41:37.081Z,20.42
2023-02-23T15:44:14.826Z,20.97
2023-02-23T15:46:44.854Z,21.33
2023-02-23T15:49:13.631Z,20.92
2023-02-23T15:51:51.444Z,22.13
2023-02-23T15:54:24.423Z,21.69
2023-02-23T15:56:56.796Z,21.36
2023-02-23T15:59:29.936Z,21.15
2023-02-23T16:02:03.620Z,21.34
2023-02-23T16:04:33.544Z,21.19
2023-02-23T16:07:18.053Z,20.57
2023-02-23T16:10:03.193Z,20.99
2023-02-23T16:12:35.486Z,21.10
2023-02-23T16:15:17.655Z,21.60
2023-02-23T16:17:47.464Z,22.20
2023-02-23T16:20:33.537Z,21.61
2023-02-23T16:23:02.282Z,20.88
2023-02-23T16:25:31.632Z,22.76
2023-02-23T16:28:05.391Z,22.28
2023-02-23T16:30:31.875Z,22.20
2023-02-23T16:33:22.364Z,21.75
2023-02-23T16:36:05.364Z,22.12
2023-02-23T16:38:37.875Z,22.76
2023-02-23T16:41:10.458Z,23.48
2023-02-23T16:43:37.453Z,23.80
2023-02-23T16:46:04.129Z,23.94
2023-02-23T16:48:30.703Z,23.22
2023-02-23T16:50:57.298Z,23.34
2023-02-23T16:53:23.835Z,24.01
2023-02-23T16:55:53.996Z,23.96
2023-02-23T16:58:26.167Z,24.70
2023-02-23T17:00:52.906Z,24.08
2023-02-23T17:03:25.634Z,24.47
2023-02-23T17:05:53.115Z,25.07
2023-02-23T17:08:19.725Z,25.06
2023-02-23T17:10:49.849Z,24.68
2023-02-23T17:13:22.692Z,26.23
2023-02-23T17:15:51.855Z,25.85
2023-02-23T17:20:56.812Z,24.13
2023-02-23T17:23:24.940Z,23.65
2023-02-23T17:25:51.423Z,22.80
2023-02-23T17:28:17.905Z,23.43
2023-02-23T17:30:45.146Z,23.06
2023-02-23T17:33:11.939Z,23.36
2023-02-23T17:35:40.876Z,24.05
2023-02-23T17:38:08.148Z,23.37
2023-02-23T17:40:35.305Z,22.75
2023-02-23T17:43:04.984Z,23.56
2023-02-23T17:45:31.947Z,24.04
2023-02-23T17:47:58.572Z,23.74
2023-02-23T17:50:28.908Z,23.56
2023-02-23T17:52:57.945Z,22.65
2023-02-23T17:55:25.848Z,23.40
2023-02-23T17:57:55.423Z,22.72
2023-02-23T18:00:21.970Z,23.73
2023-02-23T18:02:48.566Z,23.58
2023-02-23T18:05:18.438Z,23.90
2023-02-23T18:07:47.787Z,24.18
2023-02-23T18:10:17.644Z,24.90
2023-02-23T18:12:44.483Z,25.17
2023-02-23T18:15:11.099Z,24.77
2023-02-23T18:17:40.326Z,24.95
2023-02-23T18:20:07.296Z,24.51
2023-02-23T18:22:33.858Z,23.47
2023-02-23T18:25:00.386Z,23.19
2023-02-23T18:27:26.875Z,23.10
2023-02-23T18:29:56.236Z,22.87
2023-02-23T18:32:25.051Z,21.69
2023-02-23T18:34:51.649Z,22.03
2023-02-23T18:37:18.163Z,21.92
2023-02-23T18:39:44.675Z,21.82
2023-02-23T18:42:11.198Z,21.75
2023-02-23T18:44:37.720Z,21.14
2023-02-23T18:47:04.275Z,20.64
2023-02-23T18:49:30.765Z,21.00
2023-02-23T18:51:57.283Z,19.96
2023-02-23T18:54:23.795Z,19.24
2023-02-23T18:56:50.292Z,19.68
2023-02-23T18:59:16.778Z,19.31
2023-02-23T19:01:43.817Z,20.73
2023-02-23T19:04:11.208Z,22.54
2023-02-23T19:06:37.779Z,24.57
2023-02-23T19:09:05.828Z,26.27
2023-02-23T19:11:34.571Z,28.04
2023-02-23T19:14:05.082Z,27.23
2023-02-23T19:16:33.599Z,26.91
2023-02-23T19:19:04.742Z,26.91
2023-02-23T19:21:31.753Z,26.71
2023-02-23T19:23:59.239Z,27.47
2023-02-23T19:26:26.849Z,26.90
2023-02-23T19:28:53.672Z,26.13
2023-02-23T19:31:21.989Z,26.75
2023-02-23T19:33:49.898Z,26.92
2023-02-23T19:36:19.010Z,26.29
2023-02-23T19:38:48.336Z,26.10
2023-02-23T19:41:19.903Z,24.75
2023-02-23T19:43:46.911Z,23.63
2023-02-23T19:46:16.613Z,22.20
2023-02-23T19:48:45.647Z,21.02
2023-02-23T19:51:13.251Z,23.79
2023-02-23T19:53:40.246Z,24.50
2023-02-23T19:56:11.806Z,26.19
2023-02-23T19:58:38.766Z,23.60
2023-02-23T20:01:11.900Z,22.60
2023-02-23T20:03:39.898Z,21.67
2023-02-23T20:06:07.485Z,20.04
2023-02-23T20:08:34.346Z,20.55
2023-02-23T20:11:04.604Z,19.50
2023-02-23T20:13:31.073Z,17.21
2023-02-23T20:16:06.450Z,16.49
2023-02-23T20:18:33.016Z,15.34
2023-02-23T20:20:59.716Z,16.37
2023-02-23T20:23:26.229Z,19.66
2023-02-23T20:25:52.768Z,24.36
2023-02-23T20:28:19.312Z,25.33
2023-02-23T20:30:47.418Z,24.47
2023-02-23T20:33:14.428Z,22.62
2023-02-23T20:35:41.857Z,19.79
2023-02-23T20:38:11.061Z,23.08
2023-02-23T20:40:37.608Z,24.38
2023-02-23T20:43:05.702Z,22.45
2023-02-23T20:45:32.394Z,20.51
2023-02-23T20:47:59.039Z,21.77
2023-02-23T20:50:26.609Z,23.21
2023-02-23T20:52:53.197Z,25.11
2023-02-23T20:55:19.673Z,26.84
2023-02-23T20:57:48.157Z,24.96
2023-02-23T21:00:17.275Z,25.07
2023-02-23T21:02:43.975Z,25.71
2023-02-23T21:05:10.477Z,25.17
2023-02-23T21:07:37.103Z,25.36
2023-02-23T21:10:09.096Z,25.18
2023-02-23T21:12:35.682Z,24.02
2023-02-23T21:15:02.893Z,23.08
2023-02-23T21:17:31.995Z,22.87
2023-02-23T21:19:58.542Z,22.77
2023-02-23T21:22:25.187Z,23.55
2023-02-23T21:24:51.759Z,22.34
2023-02-23T21:27:18.438Z,21.16
2023-02-23T21:29:45.560Z,19.77
2023-02-23T21:32:13.751Z,18.66
2023-02-23T21:34:41.035Z,18.79
2023-02-23T21:37:07.556Z,18.65
2023-02-23T21:39:34.177Z,18.88
2023-02-23T21:42:00.886Z,18.70
2023-02-23T21:44:27.542Z,18.94
2023-02-23T21:46:54.026Z,19.54
2023-02-23T21:49:20.524Z,18.82
2023-02-23T21:51:47.049Z,19.55
2023-02-23T21:54:13.736Z,19.70
2023-02-23T21:56:40.208Z,19.30
2023-02-23T21:59:07.218Z,19.34
2023-02-23T22:01:36.956Z,19.22
2023-02-23T22:04:05.860Z,18.75
2023-02-23T22:06:38.445Z,18.21
2023-02-23T22:09:06.708Z,17.32
2023-02-23T22:11:33.208Z,17.67
2023-02-23T22:14:00.336Z,17.25
2023-02-23T22:16:30.457Z,17.40
2023-02-23T22:18:57.813Z,17.31
2023-02-23T22:21:24.351Z,17.29
2023-02-23T22:23:52.127Z,17.47
2023-02-23T22:26:18.592Z,17.61
2023-02-23T22:28:45.074Z,17.40
2023-02-23T22:31:13.699Z,17.52
2023-02-23T22:33:42.825Z,17.49
2023-02-23T22:36:12.112Z,18.55
2023-02-23T22:38:40.965Z,19.27
2023-02-23T22:41:08.407Z,18.83
2023-02-23T22:43:34.955Z,19.29
2023-02-23T22:46:01.463Z,19.59
2023-02-23T22:48:27.981Z,19.62
2023-02-23T22:50:58.405Z,19.46
2023-02-23T22:53:26.019Z,19.11
2023-02-23T22:55:55.155Z,18.26
2023-02-23T22:58:25.773Z,18.83
2023-02-23T23:00:53.386Z,18.84
2023-02-23T23:03:19.950Z,19.60
2023-02-23T23:05:48.972Z,19.98
2023-02-23T23:08:15.591Z,19.93
2023-02-23T23:10:42.085Z,19.62
2023-02-23T23:13:08.747Z,19.76
2023-02-23T23:15:35.294Z,20.07
2023-02-23T23:18:01.771Z,21.54
2023-02-23T23:20:32.470Z,21.70
2023-02-23T23:22:58.976Z,21.86
2023-02-23T23:25:25.884Z,21.71
2023-02-23T23:27:53.275Z,21.70
2023-02-23T23:30:20.892Z,22.07
2023-02-23T23:32:47.570Z,21.13
2023-02-23T23:35:14.215Z,21.69
2023-02-23T23:37:40.790Z,21.20
2023-02-23T23:40:11.397Z,20.12
2023-02-23T23:42:37.978Z,18.93
2023-02-23T23:45:04.932Z,19.16
2023-02-23T23:47:31.402Z,18.46
2023-02-23T23:49:57.896Z,18.98
2023-02-23T23:52:24.434Z,19.03
2023-02-23T23:54:50.979Z,18.50
2023-02-23T23:57:17.470Z,18.95
2023-02-23T23:59:43.974Z,19.19
